sensor_id;sensor_type;location;lat;lon;timestamp;P1;durP1;ratioP1;P2;durP2;ratioP2
37857;SDS011;23695;55.868;37.472;2022-12-18T00:01:37;6.53;;;4.57;;
37857;SDS011;23695;55.868;37.472;2022-12-18T00:04:05;5.70;;;4.45;;
37857;SDS011;23695;55.868;37.472;2022-12-18T00:06:33;5.88;;;4.43;;
37857;SDS011;23695;55.868;37.472;2022-12-18T00:09:02;5.18;;;4.40;;
37857;SDS011;23695;55.868;37.472;2022-12-18T00:11:30;6.55;;;4.45;;
37857;SDS011;23695;55.868;37.472;2022-12-18T00:13:58;5.50;;;4.50;;
37857;SDS011;23695;55.868;37.472;2022-12-18T00:16:26;6.35;;;4.97;;
37857;SDS011;23695;55.868;37.472;2022-12-18T00:18:56;5.97;;;4.50;;
37857;SDS011;23695;55.868;37.472;2022-12-18T00:21:26;6.05;;;4.55;;
37857;SDS011;23695;55.868;37.472;2022-12-18T00:23:55;5.07;;;4.15;;
37857;SDS011;23695;55.868;37.472;2022-12-18T00:26:23;6.32;;;4.75;;
37857;SDS011;23695;55.868;37.472;2022-12-18T00:28:58;5.90;;;4.40;;
37857;SDS011;23695;55.868;37.472;2022-12-18T00:31:27;5.65;;;4.07;;
37857;SDS011;23695;55.868;37.472;2022-12-18T00:33:54;6.20;;;4.40;;
37857;SDS011;23695;55.868;37.472;2022-12-18T00:36:22;6.53;;;4.80;;
37857;SDS011;23695;55.868;37.472;2022-12-18T00:38:52;7.47;;;4.45;;
37857;SDS011;23695;55.868;37.472;2022-12-18T00:41:20;6.72;;;4.47;;
37857;SDS011;23695;55.868;37.472;2022-12-18T00:43:46;5.53;;;4.25;;
37857;SDS011;23695;55.868;37.472;2022-12-18T00:46:13;6.53;;;4.70;;
37857;SDS011;23695;55.868;37.472;2022-12-18T00:48:40;6.00;;;4.28;;
37857;SDS011;23695;55.868;37.472;2022-12-18T00:51:07;5.68;;;3.95;;
37857;SDS011;23695;55.868;37.472;2022-12-18T00:53:33;6.03;;;4.60;;
37857;SDS011;23695;55.868;37.472;2022-12-18T00:56:01;5.32;;;4.15;;
37857;SDS011;23695;55.868;37.472;2022-12-18T00:58:27;4.90;;;4.20;;
37857;SDS011;23695;55.868;37.472;2022-12-18T01:00:54;5.57;;;4.07;;
37857;SDS011;23695;55.868;37.472;2022-12-18T01:03:21;6.82;;;3.85;;
37857;SDS011;23695;55.868;37.472;2022-12-18T01:05:48;4.75;;;3.85;;
37857;SDS011;23695;55.868;37.472;2022-12-18T01:08:14;5.38;;;4.18;;
37857;SDS011;23695;55.868;37.472;2022-12-18T01:10:41;5.00;;;4.30;;
37857;SDS011;23695;55.868;37.472;2022-12-18T01:13:08;6.20;;;4.22;;
37857;SDS011;23695;55.868;37.472;2022-12-18T01:15:35;5.57;;;4.03;;
37857;SDS011;23695;55.868;37.472;2022-12-18T01:18:05;4.97;;;3.78;;
37857;SDS011;23695;55.868;37.472;2022-12-18T01:22:59;8.65;;;3.85;;
37857;SDS011;23695;55.868;37.472;2022-12-18T01:25:26;10.18;;;3.83;;
37857;SDS011;23695;55.868;37.472;2022-12-18T01:27:52;4.75;;;3.80;;
37857;SDS011;23695;55.868;37.472;2022-12-18T01:30:19;5.10;;;4.15;;
37857;SDS011;23695;55.868;37.472;2022-12-18T01:32:46;5.18;;;4.22;;
37857;SDS011;23695;55.868;37.472;2022-12-18T01:35:13;5.45;;;4.07;;
37857;SDS011;23695;55.868;37.472;2022-12-18T01:37:39;5.00;;;4.18;;
37857;SDS011;23695;55.868;37.472;2022-12-18T01:40:06;5.28;;;4.03;;
37857;SDS011;23695;55.868;37.472;2022-12-18T01:42:34;4.50;;;3.72;;
37857;SDS011;23695;55.868;37.472;2022-12-18T01:47:48;4.65;;;3.33;;
37857;SDS011;23695;55.868;37.472;2022-12-18T01:52:47;3.50;;;3.20;;
37857;SDS011;23695;55.868;37.472;2022-12-18T01:55:18;5.38;;;3.83;;
37857;SDS011;23695;55.868;37.472;2022-12-18T01:57:49;5.88;;;3.78;;
37857;SDS011;23695;55.868;37.472;2022-12-18T02:00:20;4.53;;;3.55;;
37857;SDS011;23695;55.868;37.472;2022-12-18T02:02:48;4.10;;;3.45;;
37857;SDS011;23695;55.868;37.472;2022-12-18T02:05:21;5.03;;;3.55;;
37857;SDS011;23695;55.868;37.472;2022-12-18T02:08:22;6.32;;;4.25;;
37857;SDS011;23695;55.868;37.472;2022-12-18T02:11:17;4.53;;;3.60;;
37857;SDS011;23695;55.868;37.472;2022-12-18T02:17:30;7.88;;;3.35;;
37857;SDS011;23695;55.868;37.472;2022-12-18T02:20:17;3.92;;;3.38;;
37857;SDS011;23695;55.868;37.472;2022-12-18T02:25:53;5.35;;;3.70;;
37857;SDS011;23695;55.868;37.472;2022-12-18T02:28:38;7.35;;;3.38;;
37857;SDS011;23695;55.868;37.472;2022-12-18T02:31:11;4.07;;;3.67;;
37857;SDS011;23695;55.868;37.472;2022-12-18T02:33:41;4.32;;;3.50;;
37857;SDS011;23695;55.868;37.472;2022-12-18T02:36:11;6.13;;;3.72;;
37857;SDS011;23695;55.868;37.472;2022-12-18T02:38:39;3.95;;;3.35;;
37857;SDS011;23695;55.868;37.472;2022-12-18T02:41:08;4.68;;;3.75;;
37857;SDS011;23695;55.868;37.472;2022-12-18T02:43:36;4.43;;;3.55;;
37857;SDS011;23695;55.868;37.472;2022-12-18T02:46:25;3.35;;;3.05;;
37857;SDS011;23695;55.868;37.472;2022-12-18T02:49:10;4.03;;;3.45;;
37857;SDS011;23695;55.868;37.472;2022-12-18T02:54:17;4.40;;;3.45;;
37857;SDS011;23695;55.868;37.472;2022-12-18T02:56:56;4.45;;;3.85;;
37857;SDS011;23695;55.868;37.472;2022-12-18T02:59:35;4.18;;;3.78;;
37857;SDS011;23695;55.868;37.472;2022-12-18T03:02:16;3.78;;;3.38;;
37857;SDS011;23695;55.868;37.472;2022-12-18T03:04:59;5.13;;;4.00;;
37857;SDS011;23695;55.868;37.472;2022-12-18T03:08:14;5.07;;;3.13;;
37857;SDS011;23695;55.868;37.472;2022-12-18T03:13:31;4.68;;;3.72;;
37857;SDS011;23695;55.868;37.472;2022-12-18T03:16:03;3.95;;;3.53;;
37857;SDS011;23695;55.868;37.472;2022-12-18T03:18:35;4.10;;;3.45;;
37857;SDS011;23695;55.868;37.472;2022-12-18T03:21:09;5.00;;;3.53;;
37857;SDS011;23695;55.868;37.472;2022-12-18T03:23:42;4.28;;;3.53;;
37857;SDS011;23695;55.868;37.472;2022-12-18T03:26:15;9.77;;;3.58;;
37857;SDS011;23695;55.868;37.472;2022-12-18T03:28:46;4.28;;;3.38;;
37857;SDS011;23695;55.868;37.472;2022-12-18T03:31:17;3.75;;;3.38;;
37857;SDS011;23695;55.868;37.472;2022-12-18T03:33:53;3.63;;;3.15;;
37857;SDS011;23695;55.868;37.472;2022-12-18T03:36:22;3.70;;;3.30;;
37857;SDS011;23695;55.868;37.472;2022-12-18T03:38:50;5.40;;;3.25;;
37857;SDS011;23695;55.868;37.472;2022-12-18T03:54:34;3.92;;;3.33;;
37857;SDS011;23695;55.868;37.472;2022-12-18T03:57:04;3.78;;;3.38;;
37857;SDS011;23695;55.868;37.472;2022-12-18T03:59:38;4.40;;;3.25;;
37857;SDS011;23695;55.868;37.472;2022-12-18T04:02:06;3.30;;;2.88;;
37857;SDS011;23695;55.868;37.472;2022-12-18T04:04:35;4.75;;;3.70;;
37857;SDS011;23695;55.868;37.472;2022-12-18T04:07:05;3.33;;;2.88;;
37857;SDS011;23695;55.868;37.472;2022-12-18T04:09:33;5.22;;;3.45;;
37857;SDS011;23695;55.868;37.472;2022-12-18T04:12:02;3.75;;;3.13;;
37857;SDS011;23695;55.868;37.472;2022-12-18T04:14:29;3.22;;;2.90;;
37857;SDS011;23695;55.868;37.472;2022-12-18T04:16:55;4.68;;;3.10;;
37857;SDS011;23695;55.868;37.472;2022-12-18T04:19:22;3.58;;;2.53;;
37857;SDS011;23695;55.868;37.472;2022-12-18T04:21:49;7.75;;;3.08;;
37857;SDS011;23695;55.868;37.472;2022-12-18T04:24:15;6.05;;;2.85;;
37857;SDS011;23695;55.868;37.472;2022-12-18T04:26:43;3.55;;;3.10;;
37857;SDS011;23695;55.868;37.472;2022-12-18T04:29:09;4.28;;;3.00;;
37857;SDS011;23695;55.868;37.472;2022-12-18T04:31:36;7.18;;;3.13;;
37857;SDS011;23695;55.868;37.472;2022-12-18T04:34:03;7.30;;;3.33;;
37857;SDS011;23695;55.868;37.472;2022-12-18T04:36:30;5.95;;;3.38;;
37857;SDS011;23695;55.868;37.472;2022-12-18T04:38:57;5.35;;;2.78;;
37857;SDS011;23695;55.868;37.472;2022-12-18T04:41:23;4.80;;;3.22;;
37857;SDS011;23695;55.868;37.472;2022-12-18T04:43:50;3.00;;;2.70;;
37857;SDS011;23695;55.868;37.472;2022-12-18T04:46:17;4.30;;;3.00;;
37857;SDS011;23695;55.868;37.472;2022-12-18T04:48:45;6.15;;;3.35;;
37857;SDS011;23695;55.868;37.472;2022-12-18T04:51:12;5.72;;;3.25;;
37857;SDS011;23695;55.868;37.472;2022-12-18T04:53:39;4.78;;;3.20;;
37857;SDS011;23695;55.868;37.472;2022-12-18T04:56:07;3.70;;;3.10;;
37857;SDS011;23695;55.868;37.472;2022-12-18T04:58:39;5.05;;;2.95;;
37857;SDS011;23695;55.868;37.472;2022-12-18T05:01:07;3.33;;;2.97;;
37857;SDS011;23695;55.868;37.472;2022-12-18T05:03:35;6.88;;;2.75;;
37857;SDS011;23695;55.868;37.472;2022-12-18T05:06:03;4.25;;;2.90;;
37857;SDS011;23695;55.868;37.472;2022-12-18T05:08:31;3.35;;;2.97;;
37857;SDS011;23695;55.868;37.472;2022-12-18T05:10:59;4.18;;;2.65;;
37857;SDS011;23695;55.868;37.472;2022-12-18T05:13:28;3.63;;;2.58;;
37857;SDS011;23695;55.868;37.472;2022-12-18T05:15:56;4.40;;;3.13;;
37857;SDS011;23695;55.868;37.472;2022-12-18T05:18:23;7.70;;;2.88;;
37857;SDS011;23695;55.868;37.472;2022-12-18T05:20:51;4.88;;;3.05;;
37857;SDS011;23695;55.868;37.472;2022-12-18T05:23:20;6.57;;;2.97;;
37857;SDS011;23695;55.868;37.472;2022-12-18T05:25:54;4.97;;;3.20;;
37857;SDS011;23695;55.868;37.472;2022-12-18T05:28:23;4.00;;;2.90;;
37857;SDS011;23695;55.868;37.472;2022-12-18T05:30:52;7.38;;;2.80;;
37857;SDS011;23695;55.868;37.472;2022-12-18T05:33:21;4.00;;;3.00;;
37857;SDS011;23695;55.868;37.472;2022-12-18T05:35:52;4.25;;;2.90;;
37857;SDS011;23695;55.868;37.472;2022-12-18T05:38:20;8.95;;;2.75;;
37857;SDS011;23695;55.868;37.472;2022-12-18T05:40:48;4.20;;;2.67;;
37857;SDS011;23695;55.868;37.472;2022-12-18T05:43:16;8.30;;;3.10;;
37857;SDS011;23695;55.868;37.472;2022-12-18T05:48:14;3.72;;;2.83;;
37857;SDS011;23695;55.868;37.472;2022-12-18T05:50:42;3.78;;;2.85;;
37857;SDS011;23695;55.868;37.472;2022-12-18T05:53:10;7.80;;;3.10;;
37857;SDS011;23695;55.868;37.472;2022-12-18T05:55:38;7.75;;;3.15;;
37857;SDS011;23695;55.868;37.472;2022-12-18T05:58:07;7.35;;;2.65;;
37857;SDS011;23695;55.868;37.472;2022-12-18T06:00:36;3.10;;;2.80;;
37857;SDS011;23695;55.868;37.472;2022-12-18T06:03:05;3.40;;;2.90;;
37857;SDS011;23695;55.868;37.472;2022-12-18T06:05:36;6.35;;;2.95;;
37857;SDS011;23695;55.868;37.472;2022-12-18T06:08:09;4.90;;;3.17;;
37857;SDS011;23695;55.868;37.472;2022-12-18T06:10:36;4.03;;;2.78;;
37857;SDS011;23695;55.868;37.472;2022-12-18T06:15:49;4.85;;;2.53;;
37857;SDS011;23695;55.868;37.472;2022-12-18T06:18:16;6.35;;;2.90;;
37857;SDS011;23695;55.868;37.472;2022-12-18T06:20:43;7.15;;;3.20;;
37857;SDS011;23695;55.868;37.472;2022-12-18T06:23:10;5.57;;;2.90;;
37857;SDS011;23695;55.868;37.472;2022-12-18T06:25:37;4.70;;;2.90;;
37857;SDS011;23695;55.868;37.472;2022-12-18T06:28:05;8.85;;;3.28;;
37857;SDS011;23695;55.868;37.472;2022-12-18T06:30:32;3.58;;;2.90;;
37857;SDS011;23695;55.868;37.472;2022-12-18T06:32:59;3.92;;;3.40;;
37857;SDS011;23695;55.868;37.472;2022-12-18T06:35:26;4.22;;;2.90;;
37857;SDS011;23695;55.868;37.472;2022-12-18T06:37:52;3.47;;;3.17;;
37857;SDS011;23695;55.868;37.472;2022-12-18T06:40:19;3.53;;;3.00;;
37857;SDS011;23695;55.868;37.472;2022-12-18T06:42:47;3.75;;;2.97;;
37857;SDS011;23695;55.868;37.472;2022-12-18T06:45:14;4.20;;;3.10;;
37857;SDS011;23695;55.868;37.472;2022-12-18T06:47:42;3.92;;;3.20;;
37857;SDS011;23695;55.868;37.472;2022-12-18T06:50:09;4.43;;;2.95;;
37857;SDS011;23695;55.868;37.472;2022-12-18T06:52:36;3.50;;;3.20;;
37857;SDS011;23695;55.868;37.472;2022-12-18T06:55:03;3.70;;;2.90;;
37857;SDS011;23695;55.868;37.472;2022-12-18T06:57:31;4.10;;;3.10;;
37857;SDS011;23695;55.868;37.472;2022-12-18T07:00:00;3.87;;;3.00;;
37857;SDS011;23695;55.868;37.472;2022-12-18T07:02:27;3.67;;;3.10;;
37857;SDS011;23695;55.868;37.472;2022-12-18T07:04:54;3.38;;;3.05;;
37857;SDS011;23695;55.868;37.472;2022-12-18T07:07:20;4.40;;;3.20;;
37857;SDS011;23695;55.868;37.472;2022-12-18T07:09:49;4.57;;;3.50;;
37857;SDS011;23695;55.868;37.472;2022-12-18T07:12:16;4.55;;;3.50;;
37857;SDS011;23695;55.868;37.472;2022-12-18T07:14:43;3.67;;;3.20;;
37857;SDS011;23695;55.868;37.472;2022-12-18T07:17:10;5.30;;;3.47;;
37857;SDS011;23695;55.868;37.472;2022-12-18T07:19:37;6.00;;;3.33;;
37857;SDS011;23695;55.868;37.472;2022-12-18T07:22:03;3.55;;;3.10;;
37857;SDS011;23695;55.868;37.472;2022-12-18T07:24:32;3.38;;;2.95;;
37857;SDS011;23695;55.868;37.472;2022-12-18T07:26:59;3.97;;;3.50;;
37857;SDS011;23695;55.868;37.472;2022-12-18T07:29:27;3.92;;;3.45;;
37857;SDS011;23695;55.868;37.472;2022-12-18T07:31:53;4.85;;;3.33;;
37857;SDS011;23695;55.868;37.472;2022-12-18T07:34:20;3.30;;;3.00;;
37857;SDS011;23695;55.868;37.472;2022-12-18T07:36:47;3.88;;;3.22;;
37857;SDS011;23695;55.868;37.472;2022-12-18T07:39:14;3.65;;;3.00;;
37857;SDS011;23695;55.868;37.472;2022-12-18T07:41:58;4.28;;;3.35;;
37857;SDS011;23695;55.868;37.472;2022-12-18T07:44:25;3.10;;;2.80;;
37857;SDS011;23695;55.868;37.472;2022-12-18T07:46:52;4.03;;;3.28;;
37857;SDS011;23695;55.868;37.472;2022-12-18T07:49:19;3.53;;;2.80;;
37857;SDS011;23695;55.868;37.472;2022-12-18T07:51:45;7.30;;;3.20;;
37857;SDS011;23695;55.868;37.472;2022-12-18T07:54:12;3.97;;;3.15;;
37857;SDS011;23695;55.868;37.472;2022-12-18T07:56:39;4.20;;;2.97;;
37857;SDS011;23695;55.868;37.472;2022-12-18T07:59:06;4.25;;;3.53;;
37857;SDS011;23695;55.868;37.472;2022-12-18T08:01:33;4.75;;;3.20;;
37857;SDS011;23695;55.868;37.472;2022-12-18T08:04:00;4.30;;;3.70;;
37857;SDS011;23695;55.868;37.472;2022-12-18T08:06:27;5.90;;;3.22;;
37857;SDS011;23695;55.868;37.472;2022-12-18T08:08:54;4.47;;;3.38;;
37857;SDS011;23695;55.868;37.472;2022-12-18T08:11:22;6.22;;;3.42;;
37857;SDS011;23695;55.868;37.472;2022-12-18T08:13:51;4.25;;;3.17;;
37857;SDS011;23695;55.868;37.472;2022-12-18T08:16:18;7.57;;;3.60;;
37857;SDS011;23695;55.868;37.472;2022-12-18T08:18:46;5.28;;;3.15;;
37857;SDS011;23695;55.868;37.472;2022-12-18T08:21:16;6.10;;;3.70;;
37857;SDS011;23695;55.868;37.472;2022-12-18T08:23:46;10.63;;;3.40;;
37857;SDS011;23695;55.868;37.472;2022-12-18T08:26:14;19.10;;;3.40;;
37857;SDS011;23695;55.868;37.472;2022-12-18T08:28:41;16.88;;;3.72;;
37857;SDS011;23695;55.868;37.472;2022-12-18T08:31:08;8.82;;;4.05;;
37857;SDS011;23695;55.868;37.472;2022-12-18T08:33:36;5.90;;;3.30;;
37857;SDS011;23695;55.868;37.472;2022-12-18T08:36:05;16.73;;;5.13;;
37857;SDS011;23695;55.868;37.472;2022-12-18T08:38:32;15.23;;;4.68;;
37857;SDS011;23695;55.868;37.472;2022-12-18T08:41:00;12.23;;;4.20;;
37857;SDS011;23695;55.868;37.472;2022-12-18T08:43:28;8.73;;;4.28;;
37857;SDS011;23695;55.868;37.472;2022-12-18T08:45:55;8.48;;;3.90;;
37857;SDS011;23695;55.868;37.472;2022-12-18T08:48:23;6.45;;;4.07;;
37857;SDS011;23695;55.868;37.472;2022-12-18T08:50:53;8.57;;;4.15;;
37857;SDS011;23695;55.868;37.472;2022-12-18T08:53:27;7.95;;;3.85;;
37857;SDS011;23695;55.868;37.472;2022-12-18T08:56:00;5.60;;;3.55;;
37857;SDS011;23695;55.868;37.472;2022-12-18T08:58:27;6.13;;;3.95;;
37857;SDS011;23695;55.868;37.472;2022-12-18T09:00:54;5.32;;;3.33;;
37857;SDS011;23695;55.868;37.472;2022-12-18T09:03:25;11.30;;;3.50;;
37857;SDS011;23695;55.868;37.472;2022-12-18T09:05:52;3.85;;;2.90;;
37857;SDS011;23695;55.868;37.472;2022-12-18T09:08:18;4.93;;;3.15;;
37857;SDS011;23695;55.868;37.472;2022-12-18T09:10:47;7.10;;;3.17;;
37857;SDS011;23695;55.868;37.472;2022-12-18T09:13:15;3.25;;;2.95;;
37857;SDS011;23695;55.868;37.472;2022-12-18T09:15:44;10.68;;;3.17;;
37857;SDS011;23695;55.868;37.472;2022-12-18T09:18:12;5.35;;;3.35;;
37857;SDS011;23695;55.868;37.472;2022-12-18T09:20:40;8.88;;;3.17;;
37857;SDS011;23695;55.868;37.472;2022-12-18T09:23:08;3.08;;;2.63;;
37857;SDS011;23695;55.868;37.472;2022-12-18T09:28:06;3.42;;;2.60;;
37857;SDS011;23695;55.868;37.472;2022-12-18T09:30:41;5.57;;;2.97;;
37857;SDS011;23695;55.868;37.472;2022-12-18T09:33:10;5.97;;;2.95;;
37857;SDS011;23695;55.868;37.472;2022-12-18T09:35:41;5.07;;;3.58;;
37857;SDS011;23695;55.868;37.472;2022-12-18T09:38:16;3.90;;;2.60;;
37857;SDS011;23695;55.868;37.472;2022-12-18T09:40:45;2.95;;;2.55;;
37857;SDS011;23695;55.868;37.472;2022-12-18T09:43:17;6.15;;;2.33;;
37857;SDS011;23695;55.868;37.472;2022-12-18T09:48:35;6.28;;;2.30;;
37857;SDS011;23695;55.868;37.472;2022-12-18T09:51:15;4.43;;;2.78;;
37857;SDS011;23695;55.868;37.472;2022-12-18T09:53:53;4.05;;;2.97;;
37857;SDS011;23695;55.868;37.472;2022-12-18T09:56:26;3.17;;;2.70;;
37857;SDS011;23695;55.868;37.472;2022-12-18T10:01:24;3.00;;;2.50;;
37857;SDS011;23695;55.868;37.472;2022-12-18T10:04:08;3.67;;;2.22;;
37857;SDS011;23695;55.868;37.472;2022-12-18T10:06:40;4.32;;;2.67;;
37857;SDS011;23695;55.868;37.472;2022-12-18T10:09:20;3.10;;;2.30;;
37857;SDS011;23695;55.868;37.472;2022-12-18T10:15:19;2.63;;;2.22;;
37857;SDS011;23695;55.868;37.472;2022-12-18T10:18:49;3.40;;;2.50;;
37857;SDS011;23695;55.868;37.472;2022-12-18T10:26:37;3.75;;;2.63;;
37857;SDS011;23695;55.868;37.472;2022-12-18T10:29:11;3.13;;;2.38;;
37857;SDS011;23695;55.868;37.472;2022-12-18T10:31:39;2.75;;;2.47;;
37857;SDS011;23695;55.868;37.472;2022-12-18T10:34:24;2.50;;;2.30;;
37857;SDS011;23695;55.868;37.472;2022-12-18T10:36:51;2.88;;;2.22;;
37857;SDS011;23695;55.868;37.472;2022-12-18T10:39:23;2.95;;;2.65;;
37857;SDS011;23695;55.868;37.472;2022-12-18T10:41:50;2.30;;;2.10;;
37857;SDS011;23695;55.868;37.472;2022-12-18T10:44:21;3.78;;;2.78;;
37857;SDS011;23695;55.868;37.472;2022-12-18T10:46:50;3.13;;;2.33;;
37857;SDS011;23695;55.868;37.472;2022-12-18T10:49:27;2.47;;;2.28;;
37857;SDS011;23695;55.868;37.472;2022-12-18T10:52:07;3.92;;;2.60;;
37857;SDS011;23695;55.868;37.472;2022-12-18T10:55:13;3.45;;;2.50;;
37857;SDS011;23695;55.868;37.472;2022-12-18T10:57:43;2.60;;;2.38;;
37857;SDS011;23695;55.868;37.472;2022-12-18T11:00:24;2.95;;;2.17;;
37857;SDS011;23695;55.868;37.472;2022-12-18T11:05:52;2.90;;;2.60;;
37857;SDS011;23695;55.868;37.472;2022-12-18T11:08:19;3.28;;;2.33;;
37857;SDS011;23695;55.868;37.472;2022-12-18T11:10:48;7.13;;;2.92;;
37857;SDS011;23695;55.868;37.472;2022-12-18T11:13:17;3.75;;;2.25;;
37857;SDS011;23695;55.868;37.472;2022-12-18T11:15:47;2.92;;;2.47;;
37857;SDS011;23695;55.868;37.472;2022-12-18T11:18:19;3.15;;;2.20;;
37857;SDS011;23695;55.868;37.472;2022-12-18T11:20:52;3.53;;;2.63;;
37857;SDS011;23695;55.868;37.472;2022-12-18T11:23:24;2.75;;;2.50;;
37857;SDS011;23695;55.868;37.472;2022-12-18T11:25:53;3.03;;;2.50;;
37857;SDS011;23695;55.868;37.472;2022-12-18T11:31:27;3.72;;;2.35;;
37857;SDS011;23695;55.868;37.472;2022-12-18T11:34:36;2.90;;;2.40;;
37857;SDS011;23695;55.868;37.472;2022-12-18T11:36:57;3.03;;;2.25;;
37857;SDS011;23695;55.868;37.472;2022-12-18T11:39:31;2.50;;;2.30;;
37857;SDS011;23695;55.868;37.472;2022-12-18T11:42:11;3.05;;;2.30;;
37857;SDS011;23695;55.868;37.472;2022-12-18T11:44:54;3.00;;;2.35;;
37857;SDS011;23695;55.868;37.472;2022-12-18T11:53:02;2.88;;;2.33;;
37857;SDS011;23695;55.868;37.472;2022-12-18T11:58:24;4.90;;;2.63;;
37857;SDS011;23695;55.868;37.472;2022-12-18T12:15:03;3.88;;;2.45;;
37857;SDS011;23695;55.868;37.472;2022-12-18T12:17:44;2.72;;;2.03;;
37857;SDS011;23695;55.868;37.472;2022-12-18T12:20:45;5.25;;;2.47;;
37857;SDS011;23695;55.868;37.472;2022-12-18T12:26:11;4.65;;;2.42;;
37857;SDS011;23695;55.868;37.472;2022-12-18T12:29:13;4.40;;;3.42;;
37857;SDS011;23695;55.868;37.472;2022-12-18T12:31:57;4.65;;;3.13;;
37857;SDS011;23695;55.868;37.472;2022-12-18T12:34:47;8.25;;;3.42;;
37857;SDS011;23695;55.868;37.472;2022-12-18T12:40:19;5.43;;;3.53;;
37857;SDS011;23695;55.868;37.472;2022-12-18T12:45:52;4.50;;;3.22;;
37857;SDS011;23695;55.868;37.472;2022-12-18T12:51:21;3.88;;;3.08;;
37857;SDS011;23695;55.868;37.472;2022-12-18T12:54:15;5.00;;;2.97;;
37857;SDS011;23695;55.868;37.472;2022-12-18T13:04:52;4.82;;;3.67;;
37857;SDS011;23695;55.868;37.472;2022-12-18T13:36:53;7.10;;;5.05;;
37857;SDS011;23695;55.868;37.472;2022-12-18T13:39:24;9.65;;;6.15;;
37857;SDS011;23695;55.868;37.472;2022-12-18T13:44:45;10.85;;;5.97;;
37857;SDS011;23695;55.868;37.472;2022-12-18T13:47:27;9.90;;;6.35;;
37857;SDS011;23695;55.868;37.472;2022-12-18T13:50:00;9.07;;;6.25;;
37857;SDS011;23695;55.868;37.472;2022-12-18T13:52:36;8.80;;;6.07;;
37857;SDS011;23695;55.868;37.472;2022-12-18T13:55:07;7.60;;;5.18;;
37857;SDS011;23695;55.868;37.472;2022-12-18T13:57:42;7.78;;;5.07;;
37857;SDS011;23695;55.868;37.472;2022-12-18T14:02:49;10.68;;;5.82;;
37857;SDS011;23695;55.868;37.472;2022-12-18T14:05:27;8.85;;;5.53;;
